Time;durP1;ratioP1;P1;durP2;ratioP2;P2;SDS_P1;SDS_P2;PMS_P1;PMS_P2;Temp;Humidity;BMP_temperature;BMP_pressure;BME280_temperature;BME280_humidity;BME280_pressure;Samples;Min_cycle;Max_cycle;Signal;HPM_P1;HPM_P2
2021/10/14 00:00:37;;;;;;;7.77;2.90;;;;;;;-145.18;0.00;102943.50;5061149;28;20055;-69
2021/10/14 00:03:09;;;;;;;9.97;3.30;;;;;;;-145.18;0.00;102943.50;5051329;28;20660;-69
2021/10/14 00:05:35;;;;;;;7.93;3.27;;;;;;;-145.18;0.00;102943.50;5059237;28;20161;-69
2021/10/14 00:08:01;;;;;;;11.23;3.33;;;;;;;-145.18;0.00;102943.50;5044447;28;20304;-69
2021/10/14 00:10:28;;;;;;;10.93;3.40;;;;;;;-145.18;0.00;102943.50;5066821;28;20036;-69
2021/10/14 00:12:54;;;;;;;9.30;3.50;;;;;;;-145.18;0.00;102943.50;5049895;28;20074;-69
2021/10/14 00:15:20;;;;;;;10.27;3.40;;;;;;;-145.18;0.00;102943.50;5050607;28;20371;-69
2021/10/14 00:17:46;;;;;;;9.57;3.90;;;;;;;-145.18;0.00;102943.50;5054835;28;20320;-69
2021/10/14 00:20:12;;;;;;;11.10;4.20;;;;;;;-145.18;0.00;102943.50;5056927;28;20020;-69
2021/10/14 00:22:37;;;;;;;14.53;3.80;;;;;;;-145.18;0.00;102943.50;5054018;28;20029;-69
2021/10/14 00:25:04;;;;;;;10.57;3.80;;;;;;;-145.18;0.00;102943.50;5045032;28;20172;-69
2021/10/14 00:27:29;;;;;;;11.37;3.60;;;;;;;-145.18;0.00;102943.50;5051540;28;20035;-69
2021/10/14 00:29:55;;;;;;;11.13;4.67;;;;;;;-145.18;0.00;102943.50;5048774;28;20369;-69
2021/10/14 00:32:20;;;;;;;11.03;3.90;;;;;;;-145.18;0.00;102943.50;5058836;28;20307;-69
2021/10/14 00:34:46;;;;;;;14.67;4.47;;;;;;;-145.18;0.00;102943.50;5052912;28;20407;-69
2021/10/14 00:37:11;;;;;;;9.73;3.67;;;;;;;-145.18;0.00;102943.50;5067871;28;20476;-69
2021/10/14 00:39:37;;;;;;;12.87;4.00;;;;;;;-145.18;0.00;102943.50;5060614;28;20090;-69
2021/10/14 00:42:03;;;;;;;9.10;3.73;;;;;;;-145.18;0.00;102943.50;5050048;28;20393;-69
2021/10/14 00:44:48;;;;;;;9.97;3.90;;;;;;;-145.18;0.00;102943.50;5054418;28;20545;-69
2021/10/14 00:47:25;;;;;;;8.37;3.80;;;;;;;-145.18;0.00;102943.50;5052581;28;20036;-69
2021/10/14 00:49:51;;;;;;;11.20;4.20;;;;;;;-145.18;0.00;102943.50;5058387;28;20024;-69
2021/10/14 00:52:17;;;;;;;9.10;3.80;;;;;;;-145.18;0.00;102943.50;5054402;28;20020;-69
2021/10/14 00:54:50;;;;;;;10.27;3.97;;;;;;;-145.18;0.00;102943.50;5058766;28;20060;-69
2021/10/14 00:57:17;;;;;;;14.23;4.23;;;;;;;-145.18;0.00;102943.50;5063315;28;20028;-69
2021/10/14 00:59:43;;;;;;;11.20;4.20;;;;;;;-145.18;0.00;102943.50;5055934;28;20055;-69
2021/10/14 01:02:09;;;;;;;14.03;4.07;;;;;;;-145.18;0.00;102943.50;5054635;28;20428;-67
2021/10/14 01:04:35;;;;;;;9.53;3.90;;;;;;;-145.18;0.00;102943.50;5052694;28;20028;-67
2021/10/14 01:07:00;;;;;;;11.10;4.23;;;;;;;-145.18;0.00;102943.50;5052736;28;20020;-67
2021/10/14 01:09:26;;;;;;;12.50;4.53;;;;;;;-145.18;0.00;102943.50;5052775;28;20020;-67
2021/10/14 01:11:52;;;;;;;16.17;4.50;;;;;;;-145.18;0.00;102943.50;5053410;28;20432;-67
2021/10/14 01:14:18;;;;;;;13.67;4.50;;;;;;;-145.18;0.00;102943.50;5050773;28;20307;-67
2021/10/14 01:16:47;;;;;;;9.73;4.30;;;;;;;-145.18;0.00;102943.50;5057914;28;20299;-67
2021/10/14 01:19:14;;;;;;;13.50;4.90;;;;;;;-145.18;0.00;102943.50;5061673;28;20040;-67
2021/10/14 01:21:41;;;;;;;11.17;3.77;;;;;;;-145.18;0.00;102943.50;5058467;28;20040;-67
2021/10/14 01:24:07;;;;;;;10.50;4.57;;;;;;;-145.18;0.00;102943.50;5046341;28;20029;-67
2021/10/14 01:26:32;;;;;;;16.37;4.63;;;;;;;-145.18;0.00;102943.50;5061835;28;20191;-67
2021/10/14 01:28:58;;;;;;;12.17;4.53;;;;;;;-145.18;0.00;102943.50;5067642;28;20025;-67
2021/10/14 01:31:25;;;;;;;11.20;4.37;;;;;;;-145.18;0.00;102943.50;5053145;28;20097;-67
2021/10/14 01:33:51;;;;;;;12.70;4.73;;;;;;;-145.18;0.00;102943.50;5047686;28;20036;-67
2021/10/14 01:36:16;;;;;;;10.10;4.40;;;;;;;-145.18;0.00;102943.50;5069698;28;20175;-67
2021/10/14 01:38:42;;;;;;;10.97;4.30;;;;;;;-145.18;0.00;102943.50;5058440;28;20508;-67
2021/10/14 01:41:08;;;;;;;14.37;4.63;;;;;;;-145.18;0.00;102943.50;5051217;28;20102;-67
2021/10/14 01:43:34;;;;;;;11.83;4.20;;;;;;;-145.18;0.00;102943.50;5051570;28;20664;-67
2021/10/14 01:46:00;;;;;;;13.00;4.93;;;;;;;-145.18;0.00;102943.50;5073178;28;20282;-67
2021/10/14 01:48:27;;;;;;;15.87;4.83;;;;;;;-145.18;0.00;102943.50;5061325;28;20043;-67
2021/10/14 01:50:57;;;;;;;10.33;4.23;;;;;;;-145.18;0.00;102943.50;5065208;28;20280;-67
2021/10/14 01:53:22;;;;;;;12.03;4.47;;;;;;;-145.18;0.00;102943.50;5058701;28;20055;-67
2021/10/14 01:55:48;;;;;;;15.17;5.13;;;;;;;-145.18;0.00;102943.50;5064357;28;20167;-67
2021/10/14 01:58:14;;;;;;;13.10;4.77;;;;;;;-145.18;0.00;102943.50;5051304;28;20031;-67
2021/10/14 02:00:39;;;;;;;15.63;4.47;;;;;;;-145.18;0.00;102943.50;5071783;28;20028;-67
2021/10/14 02:03:05;;;;;;;11.50;4.53;;;;;;;-145.18;0.00;102943.50;5058333;28;20016;-67
2021/10/14 02:05:31;;;;;;;12.33;4.53;;;;;;;-145.18;0.00;102943.50;5055710;28;20564;-67
2021/10/14 02:07:56;;;;;;;10.37;4.27;;;;;;;-145.18;0.00;102943.50;5072255;28;20343;-67
2021/10/14 02:10:22;;;;;;;16.63;4.93;;;;;;;-145.18;0.00;102943.50;5056836;28;20024;-67
2021/10/14 02:12:47;;;;;;;17.60;5.90;;;;;;;-145.18;0.00;102943.50;5054532;28;20405;-67
2021/10/14 02:15:13;;;;;;;11.43;4.93;;;;;;;-145.18;0.00;102943.50;5051359;28;20105;-67
2021/10/14 02:17:39;;;;;;;12.53;5.87;;;;;;;-145.18;0.00;102943.50;5065973;28;20032;-67
2021/10/14 02:20:06;;;;;;;18.63;5.70;;;;;;;-145.18;0.00;102943.50;5068548;28;20032;-67
2021/10/14 02:22:32;;;;;;;14.27;5.43;;;;;;;-145.18;0.00;102943.50;5074009;28;20288;-67
2021/10/14 02:24:58;;;;;;;15.97;5.53;;;;;;;-145.18;0.00;102943.50;5059448;28;20035;-67
2021/10/14 02:27:23;;;;;;;16.37;5.90;;;;;;;-145.18;0.00;102943.50;5071839;28;20183;-67
2021/10/14 02:29:49;;;;;;;17.67;5.90;;;;;;;-145.18;0.00;102943.50;5063740;28;20244;-67
2021/10/14 02:32:14;;;;;;;14.17;5.27;;;;;;;-145.18;0.00;102943.50;5077171;28;20055;-67
2021/10/14 02:34:40;;;;;;;15.67;5.83;;;;;;;-145.18;0.00;102943.50;5060912;28;20184;-67
2021/10/14 02:37:05;;;;;;;18.47;6.30;;;;;;;-145.18;0.00;102943.50;5081379;28;20103;-67
2021/10/14 02:39:31;;;;;;;18.47;5.47;;;;;;;-145.18;0.00;102943.50;5055292;28;20099;-67
2021/10/14 02:41:56;;;;;;;18.07;6.90;;;;;;;-145.18;0.00;102943.50;5054885;28;20036;-67
2021/10/14 02:44:22;;;;;;;18.90;5.80;;;;;;;-145.18;0.00;102943.50;5053858;28;20535;-67
2021/10/14 02:46:47;;;;;;;16.33;5.83;;;;;;;-145.18;0.00;102943.50;5063969;28;20036;-67
2021/10/14 02:49:13;;;;;;;22.63;6.50;;;;;;;-145.18;0.00;102943.50;5053860;28;20480;-67
2021/10/14 02:51:38;;;;;;;17.27;5.90;;;;;;;-145.18;0.00;102943.50;5044071;28;20025;-67
2021/10/14 02:54:04;;;;;;;20.63;5.80;;;;;;;-145.18;0.00;102943.50;5053628;28;20498;-67
2021/10/14 02:56:29;;;;;;;24.40;7.20;;;;;;;-145.18;0.00;102943.50;5053094;28;20020;-67
2021/10/14 02:58:55;;;;;;;19.70;6.33;;;;;;;-145.18;0.00;102943.50;5050235;28;20040;-67
2021/10/14 03:01:20;;;;;;;15.50;5.53;;;;;;;-145.18;0.00;102943.50;5066828;28;20029;-69
2021/10/14 03:03:46;;;;;;;19.00;5.70;;;;;;;-145.18;0.00;102943.50;5058992;28;20043;-69
2021/10/14 03:06:11;;;;;;;18.10;6.63;;;;;;;-145.18;0.00;102943.50;5044845;28;20032;-69
2021/10/14 03:08:37;;;;;;;17.33;6.23;;;;;;;-145.18;0.00;102943.50;5056811;28;20178;-69
2021/10/14 03:11:02;;;;;;;18.53;7.03;;;;;;;-145.18;0.00;102943.50;5056582;28;20028;-69
2021/10/14 03:13:28;;;;;;;16.60;6.10;;;;;;;-145.18;0.00;102943.50;5058273;28;20135;-69
2021/10/14 03:15:53;;;;;;;17.77;5.77;;;;;;;-145.18;0.00;102943.50;5057580;28;20323;-69
2021/10/14 03:18:19;;;;;;;18.40;6.60;;;;;;;-145.18;0.00;102943.50;5050505;28;20095;-69
2021/10/14 03:20:44;;;;;;;14.77;6.57;;;;;;;-145.18;0.00;102943.50;5072618;28;20372;-69
2021/10/14 03:23:10;;;;;;;17.63;5.90;;;;;;;-145.18;0.00;102943.50;5058448;28;20031;-69
2021/10/14 03:25:35;;;;;;;18.27;6.60;;;;;;;-145.18;0.00;102943.50;5064101;28;20051;-69
2021/10/14 03:28:01;;;;;;;15.27;6.23;;;;;;;-145.18;0.00;102943.50;5068060;28;20535;-70
2021/10/14 03:30:26;;;;;;;18.37;6.67;;;;;;;-145.18;0.00;102943.50;5048754;28;20091;-69
2021/10/14 03:32:52;;;;;;;13.93;5.47;;;;;;;-145.18;0.00;102943.50;5053938;28;20576;-69
2021/10/14 03:35:17;;;;;;;17.93;6.53;;;;;;;-145.18;0.00;102943.50;5042827;28;20036;-69
2021/10/14 03:37:46;;;;;;;15.97;6.47;;;;;;;-145.18;0.00;102943.50;5072105;28;20110;-69
2021/10/14 03:40:12;;;;;;;14.13;6.53;;;;;;;-145.18;0.00;102943.50;5051987;28;20036;-69
2021/10/14 03:42:37;;;;;;;17.17;5.73;;;;;;;-145.18;0.00;102943.50;5070736;28;20443;-69
2021/10/14 03:45:03;;;;;;;14.70;6.30;;;;;;;-145.18;0.00;102943.50;5058849;28;20039;-69
2021/10/14 03:47:29;;;;;;;15.40;6.17;;;;;;;-145.18;0.00;102943.50;5064712;28;20373;-69
2021/10/14 03:49:54;;;;;;;14.73;5.90;;;;;;;-145.18;0.00;102943.50;5056445;28;20304;-69
2021/10/14 03:52:20;;;;;;;16.77;5.97;;;;;;;-145.18;0.00;102943.50;5070899;28;20098;-69
2021/10/14 03:54:45;;;;;;;17.43;6.10;;;;;;;-145.18;0.00;102943.50;5044005;28;20037;-69
2021/10/14 03:57:10;;;;;;;14.70;6.33;;;;;;;-145.18;0.00;102943.50;5056677;28;20310;-69
2021/10/14 03:59:36;;;;;;;15.00;6.50;;;;;;;-145.18;0.00;102943.50;5045034;28;20035;-69
2021/10/14 04:02:02;;;;;;;17.03;6.70;;;;;;;-145.18;0.00;102943.50;5051521;28;20442;-69
2021/10/14 04:04:27;;;;;;;16.33;6.90;;;;;;;-145.18;0.00;102943.50;5047194;28;20028;-69
2021/10/14 04:06:52;;;;;;;17.53;6.83;;;;;;;-145.18;0.00;102943.50;5057577;28;20397;-70
2021/10/14 04:09:18;;;;;;;14.70;6.40;;;;;;;-145.18;0.00;102943.50;5047587;28;20029;-69
2021/10/14 04:11:44;;;;;;;14.87;5.83;;;;;;;-145.18;0.00;102943.50;5057281;28;20568;-70
2021/10/14 04:14:09;;;;;;;14.40;5.93;;;;;;;-145.18;0.00;102943.50;5049612;28;20036;-69
2021/10/14 04:16:35;;;;;;;13.57;5.90;;;;;;;-145.18;0.00;102943.50;5062171;28;20040;-69
2021/10/14 04:19:00;;;;;;;12.53;5.47;;;;;;;-145.18;0.00;102943.50;5061723;28;20106;-69
2021/10/14 04:21:26;;;;;;;15.40;5.77;;;;;;;-145.18;0.00;102943.50;5056330;28;20025;-70
2021/10/14 04:23:51;;;;;;;13.50;5.87;;;;;;;-145.18;0.00;102943.50;5056985;28;20028;-69
2021/10/14 04:26:17;;;;;;;14.77;5.77;;;;;;;-145.18;0.00;102943.50;5065426;28;20526;-69
2021/10/14 04:28:42;;;;;;;14.43;6.40;;;;;;;-145.18;0.00;102943.50;5066104;28;20168;-70
2021/10/14 04:31:09;;;;;;;17.60;6.27;;;;;;;-145.18;0.00;102943.50;5065327;28;20358;-69
2021/10/14 04:33:35;;;;;;;13.83;6.13;;;;;;;-145.18;0.00;102943.50;5052776;28;20602;-69
2021/10/14 04:36:04;;;;;;;17.23;5.77;;;;;;;-145.18;0.00;102943.50;5055451;28;20255;-69
2021/10/14 04:38:30;;;;;;;14.20;5.93;;;;;;;-145.18;0.00;102943.50;5053836;28;20496;-69
2021/10/14 04:40:56;;;;;;;13.77;6.00;;;;;;;-145.18;0.00;102943.50;5055306;28;20027;-69
2021/10/14 04:43:23;;;;;;;14.27;5.93;;;;;;;-145.18;0.00;102943.50;5042924;28;20016;-69
2021/10/14 04:45:51;;;;;;;14.60;5.20;;;;;;;-145.18;0.00;102943.50;5052837;28;20124;-70
2021/10/14 04:48:17;;;;;;;16.20;5.60;;;;;;;-145.18;0.00;102943.50;5049954;28;20273;-69
2021/10/14 04:50:43;;;;;;;14.47;5.83;;;;;;;-145.18;0.00;102943.50;5049335;28;20123;-70
2021/10/14 04:53:09;;;;;;;15.50;6.07;;;;;;;-145.18;0.00;102943.50;5073627;28;20023;-69
2021/10/14 04:55:34;;;;;;;18.03;6.27;;;;;;;-145.18;0.00;102943.50;5051608;28;20059;-69
2021/10/14 04:58:00;;;;;;;18.03;6.43;;;;;;;-145.18;0.00;102943.50;5058477;28;20029;-69
2021/10/14 05:00:26;;;;;;;17.20;6.60;;;;;;;-145.18;0.00;102943.50;5062988;28;20028;-70
2021/10/14 05:02:52;;;;;;;17.60;6.87;;;;;;;-145.18;0.00;102943.50;5071955;28;20055;-69
2021/10/14 05:05:17;;;;;;;16.43;6.13;;;;;;;-145.18;0.00;102943.50;5058015;28;20182;-70
2021/10/14 05:07:43;;;;;;;17.93;6.57;;;;;;;-145.18;0.00;102943.50;5058216;28;20071;-70
2021/10/14 05:10:09;;;;;;;15.87;6.20;;;;;;;-145.18;0.00;102943.50;5064776;28;20054;-69
2021/10/14 05:12:37;;;;;;;16.00;6.87;;;;;;;-145.18;0.00;102943.50;5064469;28;20028;-69
2021/10/14 05:15:07;;;;;;;18.00;7.40;;;;;;;-145.18;0.00;102943.50;5065998;28;20052;-69
2021/10/14 05:17:33;;;;;;;18.47;6.97;;;;;;;-145.18;0.00;102943.50;5074572;28;20039;-69
2021/10/14 05:19:59;;;;;;;18.93;7.57;;;;;;;-145.18;0.00;102943.50;5050341;28;20162;-69
2021/10/14 05:22:25;;;;;;;23.80;7.80;;;;;;;-145.18;0.00;102943.50;5058081;28;20034;-70
2021/10/14 05:24:50;;;;;;;20.30;7.10;;;;;;;-145.18;0.00;102943.50;5069262;28;20495;-70
2021/10/14 05:27:16;;;;;;;23.97;7.20;;;;;;;-145.18;0.00;102943.50;5077700;28;20028;-69
2021/10/14 05:29:42;;;;;;;18.57;7.40;;;;;;;-145.18;0.00;102943.50;5056487;28;20033;-69
2021/10/14 05:32:08;;;;;;;20.60;7.57;;;;;;;-145.18;0.00;102943.50;5056590;28;20101;-69
2021/10/14 05:34:33;;;;;;;23.13;7.87;;;;;;;-145.18;0.00;102943.50;5047392;28;20040;-69
2021/10/14 05:36:59;;;;;;;21.00;7.40;;;;;;;-145.18;0.00;102943.50;5075282;28;20175;-69
2021/10/14 05:39:24;;;;;;;22.10;7.90;;;;;;;-145.18;0.00;102943.50;5058144;28;20169;-70
2021/10/14 05:41:50;;;;;;;20.60;8.17;;;;;;;-145.18;0.00;102943.50;5056620;28;20289;-69
2021/10/14 05:44:15;;;;;;;20.83;7.90;;;;;;;-145.18;0.00;102943.50;5049245;28;20039;-69
2021/10/14 05:46:41;;;;;;;22.13;7.63;;;;;;;-145.18;0.00;102943.50;5075681;28;20020;-70
2021/10/14 05:49:06;;;;;;;25.40;8.23;;;;;;;-145.18;0.00;102943.50;5063205;28;20469;-69
2021/10/14 05:51:32;;;;;;;20.83;8.30;;;;;;;-145.18;0.00;102943.50;5074991;28;20156;-69
2021/10/14 05:53:57;;;;;;;23.70;8.67;;;;;;;-145.18;0.00;102943.50;5066321;28;20036;-69
2021/10/14 05:56:24;;;;;;;20.90;7.57;;;;;;;-145.18;0.00;102943.50;5054708;28;20029;-70
2021/10/14 05:58:50;;;;;;;22.40;8.63;;;;;;;-145.18;0.00;102943.50;5052950;28;20687;-69
2021/10/14 06:01:16;;;;;;;21.57;7.73;;;;;;;-145.18;0.00;102943.50;5074360;28;20028;-69
2021/10/14 06:03:42;;;;;;;21.07;8.20;;;;;;;-145.18;0.00;102943.50;5064133;28;20036;-69
2021/10/14 06:06:07;;;;;;;22.70;8.87;;;;;;;-145.18;0.00;102943.50;5070629;28;20021;-69
2021/10/14 06:08:33;;;;;;;18.67;7.50;;;;;;;-145.18;0.00;102943.50;5066505;28;20115;-69
2021/10/14 06:10:58;;;;;;;22.00;7.57;;;;;;;-145.18;0.00;102943.50;5058642;28;20024;-69
2021/10/14 06:13:24;;;;;;;20.23;8.10;;;;;;;-145.18;0.00;102943.50;5059954;28;20045;-69
2021/10/14 06:15:49;;;;;;;21.93;8.47;;;;;;;-145.18;0.00;102943.50;5075470;28;20121;-69
2021/10/14 06:18:15;;;;;;;22.17;8.53;;;;;;;-145.18;0.00;102943.50;5080945;28;20035;-69
2021/10/14 06:20:40;;;;;;;20.27;8.17;;;;;;;-145.18;0.00;102943.50;5057609;28;20177;-69
2021/10/14 06:23:06;;;;;;;20.63;9.60;;;;;;;-145.18;0.00;102943.50;5061191;28;20083;-69
2021/10/14 06:25:32;;;;;;;21.83;9.43;;;;;;;-145.18;0.00;102943.50;5075931;28;20474;-69
2021/10/14 06:27:57;;;;;;;25.00;9.10;;;;;;;-145.18;0.00;102943.50;5081140;28;20028;-69
2021/10/14 06:30:23;;;;;;;25.53;9.47;;;;;;;-145.18;0.00;102943.50;5062389;28;20043;-69
2021/10/14 06:32:49;;;;;;;21.17;8.10;;;;;;;-145.18;0.00;102943.50;5061147;28;20089;-69
2021/10/14 06:35:15;;;;;;;27.00;9.67;;;;;;;-145.18;0.00;102943.50;5051765;28;20269;-69
2021/10/14 06:37:40;;;;;;;23.60;9.73;;;;;;;-145.18;0.00;102943.50;5080937;28;20446;-69
2021/10/14 06:40:07;;;;;;;26.37;10.17;;;;;;;-145.18;0.00;102943.50;5053562;28;20036;-69
2021/10/14 06:42:32;;;;;;;27.47;10.37;;;;;;;-145.18;0.00;102943.50;5060856;28;20107;-69
2021/10/14 06:44:58;;;;;;;25.77;10.27;;;;;;;-145.18;0.00;102943.50;5053942;28;20107;-69
2021/10/14 06:47:23;;;;;;;26.07;10.00;;;;;;;-145.18;0.00;102943.50;5081039;28;20050;-69
2021/10/14 06:49:49;;;;;;;27.57;9.83;;;;;;;-145.18;0.00;102943.50;5062619;28;20242;-69
2021/10/14 06:52:16;;;;;;;28.97;11.30;;;;;;;-145.18;0.00;102943.50;5080644;28;20024;-69
2021/10/14 06:54:43;;;;;;;25.77;10.33;;;;;;;-145.18;0.00;102943.50;5059671;28;20059;-69
2021/10/14 06:57:08;;;;;;;29.20;11.13;;;;;;;-145.18;0.00;102943.50;5060500;28;20541;-69
2021/10/14 06:59:34;;;;;;;27.53;10.77;;;;;;;-145.18;0.00;102943.50;5055385;28;20035;-69
2021/10/14 07:01:59;;;;;;;26.63;10.07;;;;;;;-145.18;0.00;102943.50;5079851;28;20055;-69
2021/10/14 07:04:25;;;;;;;26.87;9.97;;;;;;;-145.18;0.00;102943.50;5057138;28;20107;-69
2021/10/14 07:06:51;;;;;;;30.97;11.40;;;;;;;-145.18;0.00;102943.50;5080960;28;20058;-69
2021/10/14 07:09:16;;;;;;;26.53;10.13;;;;;;;-145.18;0.00;102943.50;5066138;28;20033;-69
2021/10/14 07:11:52;;;;;;;27.40;10.23;;;;;;;-145.18;0.00;102943.50;5059498;28;20107;-69
2021/10/14 07:14:17;;;;;;;26.93;10.47;;;;;;;-145.18;0.00;102943.50;5059583;28;20032;-69
2021/10/14 07:16:43;;;;;;;26.33;10.20;;;;;;;-145.18;0.00;102943.50;5079881;28;20051;-69
2021/10/14 07:19:08;;;;;;;26.67;10.37;;;;;;;-145.18;0.00;102943.50;5069073;28;20277;-69
2021/10/14 07:21:34;;;;;;;29.50;10.60;;;;;;;-145.18;0.00;102943.50;5059813;28;20398;-69
2021/10/14 07:23:59;;;;;;;27.53;10.47;;;;;;;-145.18;0.00;102943.50;5060928;28;20032;-69
2021/10/14 07:26:25;;;;;;;28.77;10.57;;;;;;;-145.18;0.00;102943.50;5080336;28;20020;-69
2021/10/14 07:28:50;;;;;;;22.70;9.27;;;;;;;-145.18;0.00;102943.50;5073835;28;20032;-69
2021/10/14 07:31:16;;;;;;;23.00;10.03;;;;;;;-145.18;0.00;102943.50;5059583;28;20031;-69
2021/10/14 07:33:41;;;;;;;25.77;9.53;;;;;;;-145.18;0.00;102943.50;5056129;28;20040;-69
2021/10/14 07:36:07;;;;;;;28.03;10.13;;;;;;;-145.18;0.00;102943.50;5060507;28;20431;-69
2021/10/14 07:38:33;;;;;;;26.17;9.07;;;;;;;-145.18;0.00;102943.50;5065832;28;20573;-69
2021/10/14 07:40:58;;;;;;;21.80;9.00;;;;;;;-145.18;0.00;102943.50;5060517;28;20024;-69
2021/10/14 07:43:24;;;;;;;22.87;9.27;;;;;;;-145.18;0.00;102943.50;5076319;28;20027;-69
2021/10/14 07:45:49;;;;;;;24.00;9.07;;;;;;;-145.18;0.00;102943.50;5049858;28;20167;-69
2021/10/14 07:48:15;;;;;;;25.23;10.00;;;;;;;-145.18;0.00;102943.50;5059476;28;20496;-69
2021/10/14 07:50:41;;;;;;;28.23;10.77;;;;;;;-145.18;0.00;102943.50;5065495;28;20098;-69
2021/10/14 07:53:15;;;;;;;27.80;10.07;;;;;;;-145.18;0.00;102943.50;5079163;28;20081;-69
2021/10/14 07:55:41;;;;;;;22.70;9.10;;;;;;;-145.18;0.00;102943.50;5058975;28;20032;-69
2021/10/14 07:58:07;;;;;;;26.63;10.33;;;;;;;-145.18;0.00;102943.50;5059193;28;20288;-69
2021/10/14 08:00:33;;;;;;;27.77;10.80;;;;;;;-145.18;0.00;102943.50;5061543;28;20125;-69
2021/10/14 08:02:59;;;;;;;21.53;8.97;;;;;;;-145.18;0.00;102943.50;5058235;28;20024;-69
2021/10/14 08:05:25;;;;;;;19.23;8.33;;;;;;;-145.18;0.00;102943.50;5063707;28;20249;-69
2021/10/14 08:07:50;;;;;;;21.47;9.07;;;;;;;-145.18;0.00;102943.50;5079341;28;20120;-69
2021/10/14 08:10:16;;;;;;;25.73;9.40;;;;;;;-145.18;0.00;102943.50;5056835;28;20036;-69
2021/10/14 08:12:43;;;;;;;24.70;9.27;;;;;;;-145.18;0.00;102943.50;5058901;28;20039;-69
2021/10/14 08:15:09;;;;;;;19.77;8.03;;;;;;;-145.18;0.00;102943.50;5065420;28;20279;-69
2021/10/14 08:17:34;;;;;;;17.23;8.03;;;;;;;-145.18;0.00;102943.50;5079062;28;20513;-69
2021/10/14 08:20:00;;;;;;;19.03;8.53;;;;;;;-145.18;0.00;102943.50;5060242;28;20036;-69
2021/10/14 08:22:25;;;;;;;19.53;7.83;;;;;;;-145.18;0.00;102943.50;5058214;28;20558;-69
2021/10/14 08:24:52;;;;;;;21.07;8.23;;;;;;;-145.18;0.00;102943.50;5067201;28;20106;-69
2021/10/14 08:27:18;;;;;;;26.43;8.47;;;;;;;-145.18;0.00;102943.50;5079141;28;20428;-69
2021/10/14 08:29:44;;;;;;;25.27;8.00;;;;;;;-145.18;0.00;102943.50;5065800;28;20234;-69
2021/10/14 08:32:10;;;;;;;17.13;7.90;;;;;;;-145.18;0.00;102943.50;5058966;28;20051;-69
2021/10/14 08:34:35;;;;;;;15.87;6.73;;;;;;;-145.18;0.00;102943.50;5047523;28;20575;-69
2021/10/14 08:37:01;;;;;;;24.47;8.27;;;;;;;-145.18;0.00;102943.50;5074925;28;20031;-69
2021/10/14 08:39:26;;;;;;;16.53;7.40;;;;;;;-145.18;0.00;102943.50;5059009;28;20031;-69
2021/10/14 08:41:52;;;;;;;15.23;6.73;;;;;;;-145.18;0.00;102943.50;5056510;28;20029;-69
2021/10/14 08:44:28;;;;;;;17.47;7.87;;;;;;;-145.18;0.00;102943.50;5049638;28;20341;-69
2021/10/14 08:46:57;;;;;;;14.70;7.03;;;;;;;-145.18;0.00;102943.50;5077813;28;20588;-69
2021/10/14 08:49:24;;;;;;;15.43;7.03;;;;;;;-145.18;0.00;102943.50;5061360;28;20044;-69
2021/10/14 08:51:52;;;;;;;18.40;7.77;;;;;;;-145.18;0.00;102943.50;5076797;28;20137;-69
2021/10/14 08:54:18;;;;;;;16.77;6.77;;;;;;;-145.18;0.00;102943.50;5053704;28;20189;-69
2021/10/14 08:56:50;;;;;;;15.50;7.23;;;;;;;-145.18;0.00;102943.50;5058091;28;20046;-69
2021/10/14 08:59:19;;;;;;;13.95;6.63;;;;;;;-145.18;0.00;102943.50;5050711;28;20032;-69
2021/10/14 09:02:13;;;;;;;14.43;6.47;;;;;;;-145.18;0.00;102943.50;5078810;28;20404;-69
2021/10/14 09:04:58;;;;;;;21.33;7.27;;;;;;;-145.18;0.00;102943.50;5056301;28;20071;-69
2021/10/14 09:07:26;;;;;;;14.77;6.43;;;;;;;-145.18;0.00;102943.50;5058115;28;20032;-69
2021/10/14 09:09:52;;;;;;;15.43;7.20;;;;;;;-145.18;0.00;102943.50;5059439;28;20020;-70
2021/10/14 09:12:21;;;;;;;13.33;6.50;;;;;;;-145.18;0.00;102943.50;5059670;28;20120;-69
2021/10/14 09:15:22;;;;;;;17.87;7.93;;;;;;;-145.18;0.00;102943.50;5060908;28;20108;-69
2021/10/14 09:17:50;;;;;;;13.07;6.30;;;;;;;-145.18;0.00;102943.50;5073286;28;20043;-69
2021/10/14 09:20:37;;;;;;;16.57;7.80;;;;;;;-145.18;0.00;102943.50;5058305;28;20202;-69
2021/10/14 09:23:13;;;;;;;18.27;7.47;;;;;;;-145.18;0.00;102943.50;5058384;28;20267;-69
2021/10/14 09:25:47;;;;;;;13.20;5.97;;;;;;;-145.18;0.00;102943.50;5072504;28;20028;-69
2021/10/14 09:28:35;;;;;;;12.77;5.90;;;;;;;-145.18;0.00;102943.50;5078565;28;20039;-69
2021/10/14 09:31:06;;;;;;;11.97;6.07;;;;;;;-145.18;0.00;102943.50;5046298;28;20181;-69
2021/10/14 09:33:46;;;;;;;12.17;6.03;;;;;;;-145.18;0.00;102943.50;5058990;28;20024;-69
2021/10/14 09:36:28;;;;;;;13.33;6.17;;;;;;;-145.18;0.00;102943.50;5055329;28;20040;-69
2021/10/14 09:39:03;;;;;;;11.85;5.65;;;;;;;-145.18;0.00;102943.50;5056610;28;20128;-69
2021/10/14 09:41:37;;;;;;;14.83;6.33;;;;;;;-145.18;0.00;102943.50;5068629;28;20031;-69
2021/10/14 09:44:07;;;;;;;12.67;5.80;;;;;;;-145.18;0.00;102943.50;5056974;28;20056;-69
2021/10/14 09:46:39;;;;;;;13.07;5.47;;;;;;;-145.18;0.00;102943.50;5056575;28;20213;-69
2021/10/14 09:49:09;;;;;;;11.70;5.27;;;;;;;-145.18;0.00;102943.50;5057791;28;20280;-69
2021/10/14 09:51:36;;;;;;;12.80;5.47;;;;;;;-145.18;0.00;102943.50;5079405;28;20020;-69
2021/10/14 09:54:02;;;;;;;11.77;5.50;;;;;;;-145.18;0.00;102943.50;5069165;28;20029;-69
2021/10/14 09:56:29;;;;;;;10.70;5.10;;;;;;;-145.18;0.00;102943.50;5059195;28;20028;-69
2021/10/14 09:58:57;;;;;;;14.33;5.87;;;;;;;-145.18;0.00;102943.50;5056081;28;20032;-69
2021/10/14 10:01:23;;;;;;;10.10;4.53;;;;;;;-145.18;0.00;102943.50;5077632;28;20637;-69
2021/10/14 10:03:49;;;;;;;12.37;5.60;;;;;;;-145.18;0.00;102943.50;5066879;28;20281;-69
2021/10/14 10:06:16;;;;;;;11.10;5.40;;;;;;;-145.18;0.00;102943.50;5065212;28;20048;-69
2021/10/14 10:08:43;;;;;;;10.97;4.67;;;;;;;-145.18;0.00;102943.50;5074672;28;20489;-69
2021/10/14 10:11:12;;;;;;;13.37;5.60;;;;;;;-145.18;0.00;102943.50;5059646;28;20039;-69
2021/10/14 10:13:44;;;;;;;12.70;5.43;;;;;;;-145.18;0.00;102943.50;5057900;28;20738;-69
2021/10/14 10:16:18;;;;;;;10.47;5.10;;;;;;;-145.18;0.00;102943.50;5079926;28;20207;-70
2021/10/14 10:18:48;;;;;;;10.63;4.97;;;;;;;-145.18;0.00;102943.50;5074019;28;20039;-69
2021/10/14 10:21:49;;;;;;;11.63;4.93;;;;;;;-145.18;0.00;102943.50;5069103;28;20039;-69
2021/10/14 10:24:40;;;;;;;9.67;4.90;;;;;;;-145.18;0.00;102943.50;4990581;28;20026;-69
2021/10/14 10:27:08;;;;;;;14.30;4.87;;;;;;;-145.18;0.00;102943.50;4976231;28;20674;-69
2021/10/14 10:29:36;;;;;;;13.80;5.27;;;;;;;-145.18;0.00;102943.50;4978632;28;20034;-69
2021/10/14 10:32:20;;;;;;;8.67;3.63;;;;;;;-145.18;0.00;102943.50;4978564;28;20109;-69
2021/10/14 10:34:52;;;;;;;10.40;4.70;;;;;;;-145.18;0.00;102943.50;4978514;28;20120;-69
2021/10/14 10:37:47;;;;;;;;;;;;;;;-145.18;0.00;102943.50;4966301;28;20545;-69
2021/10/14 10:40:24;;;;;;;9.20;3.67;;;;;;;-145.18;0.00;102943.50;4978782;28;19918;-69
2021/10/14 10:43:06;;;;;;;8.93;4.10;;;;;;;-145.18;0.00;102943.50;4978504;28;20044;-69
2021/10/14 10:45:52;;;;;;;11.75;4.30;;;;;;;-145.18;0.00;102943.50;4977713;28;20061;-69
2021/10/14 10:48:38;;;;;;;7.73;3.67;;;;;;;-145.18;0.00;102943.50;4977988;28;20034;-68
2021/10/14 10:51:06;;;;;;;9.53;3.70;;;;;;;-145.18;0.00;102943.50;4977703;28;20046;-69
2021/10/14 10:53:44;;;;;;;10.87;3.70;;;;;;;-145.18;0.00;102943.50;4978551;28;20577;-69
2021/10/14 10:56:34;;;;;;;8.17;3.40;;;;;;;-145.18;0.00;102943.50;4978174;28;20096;-69
2021/10/14 10:59:01;;;;;;;9.73;3.20;;;;;;;-145.18;0.00;102943.50;5037440;28;20033;-69
2021/10/14 11:01:27;;;;;;;9.00;3.33;;;;;;;-145.18;0.00;102943.50;5077884;28;20085;-69
2021/10/14 11:04:02;;;;;;;8.23;3.83;;;;;;;-145.18;0.00;102943.50;5060341;28;20033;-69
2021/10/14 11:06:32;;;;;;;9.03;3.70;;;;;;;-145.18;0.00;102943.50;5080411;28;20266;-69
2021/10/14 11:09:12;;;;;;;6.30;3.53;;;;;;;-145.18;0.00;102943.50;5068819;28;20622;-70
2021/10/14 11:11:38;;;;;;;6.77;2.97;;;;;;;-145.18;0.00;102943.50;5060146;28;20028;-69